Time;durP1;ratioP1;P1;durP2;ratioP2;P2;SDS_P1;SDS_P2;PMS_P1;PMS_P2;Temp;Humidity;BMP_temperature;BMP_pressure;BME280_temperature;BME280_humidity;BME280_pressure;Samples;Min_cycle;Max_cycle;Signal;HPM_P1;HPM_P2
2024/02/19 00:00:05;;;;;;;;;;;9.80;60.60;;;;;;5095740;28;19931;-85
2024/02/19 00:02:31;;;;;;;;;;;9.80;53.90;;;;;;5097522;28;20274;-85
2024/02/19 00:04:56;;;;;;;;;;;9.90;51.80;;;;;;5096137;28;19956;-82
2024/02/19 00:07:22;;;;;;;;;;;9.80;51.60;;;;;;5083595;28;19934;-85
2024/02/19 00:09:47;;;;;;;;;;;9.80;51.00;;;;;;5091625;28;19919;-86
2024/02/19 00:12:13;;;;;;;;;;;9.90;47.80;;;;;;5092805;28;19919;-84
2024/02/19 00:14:38;;;;;;;;;;;9.80;47.70;;;;;;5089051;28;19912;-85
2024/02/19 00:17:04;;;;;;;;;;;9.80;48.10;;;;;;5080343;28;19917;-84
2024/02/19 00:19:31;;;;;;;;;;;9.80;48.30;;;;;;5096255;28;20355;-84
2024/02/19 00:21:57;;;;;;;;;;;9.80;49.60;;;;;;5085196;28;19919;-85
2024/02/19 00:24:22;;;;;;;;;;;9.90;53.80;;;;;;5092833;28;20340;-84
2024/02/19 00:26:48;;;;;;;;;;;9.70;58.40;;;;;;5090245;28;19912;-85
2024/02/19 00:29:14;;;;;;;;;;;9.70;63.60;;;;;;5086714;28;19916;-84
2024/02/19 00:31:39;;;;;;;;;;;9.60;66.10;;;;;;5083061;28;19921;-84
2024/02/19 00:34:06;;;;;;;;;;;9.70;67.00;;;;;;5083282;28;20386;-85
2024/02/19 00:36:31;;;;;;;;;;;9.70;67.50;;;;;;5079594;28;19913;-85
2024/02/19 00:38:57;;;;;;;;;;;9.70;68.70;;;;;;5078434;28;19962;-84
2024/02/19 00:41:22;;;;;;;;;;;9.70;69.20;;;;;;5084131;28;19913;-82
2024/02/19 00:43:48;;;;;;;;;;;9.70;68.80;;;;;;5081961;28;19912;-83
2024/02/19 00:46:14;;;;;;;;;;;9.70;62.50;;;;;;5083653;28;19923;-84
2024/02/19 00:48:39;;;;;;;;;;;9.80;63.30;;;;;;5085094;28;20007;-85
2024/02/19 00:51:05;;;;;;;;;;;9.70;62.50;;;;;;5079232;28;19916;-84
2024/02/19 00:53:30;;;;;;;;;;;9.70;61.70;;;;;;5093288;28;19915;-85
2024/02/19 00:55:56;;;;;;;;;;;9.70;60.80;;;;;;5082631;28;20015;-84
2024/02/19 00:58:21;;;;;;;;;;;9.70;63.40;;;;;;5082465;28;19931;-82
2024/02/19 01:00:47;;;;;;;;;;;9.70;61.70;;;;;;5089594;28;19919;-84
2024/02/19 01:03:13;;;;;;;;;;;9.70;60.50;;;;;;5077460;28;20015;-84
2024/02/19 01:05:38;;;;;;;;;;;9.70;59.30;;;;;;5077559;28;19920;-84
2024/02/19 01:08:04;;;;;;;;;;;9.70;59.60;;;;;;5086097;28;20266;-83
2024/02/19 01:10:30;;;;;;;;;;;9.60;56.90;;;;;;5091249;28;19919;-84
2024/02/19 01:12:55;;;;;;;;;;;9.70;53.30;;;;;;5087900;28;19918;-84
2024/02/19 01:15:21;;;;;;;;;;;9.70;51.20;;;;;;5078107;28;19917;-84
2024/02/19 01:17:46;;;;;;;;;;;9.60;51.10;;;;;;5077570;28;19912;-84
2024/02/19 01:20:11;;;;;;;;;;;9.80;47.70;;;;;;5083542;28;19920;-84
2024/02/19 01:22:38;;;;;;;;;;;9.60;46.50;;;;;;5087100;28;19916;-84
2024/02/19 01:25:04;;;;;;;;;;;9.60;46.40;;;;;;5083638;28;19916;-85
2024/02/19 01:27:30;;;;;;;;;;;9.60;47.20;;;;;;5088744;28;19921;-85
2024/02/19 01:29:55;;;;;;;;;;;9.60;48.60;;;;;;5094511;28;19924;-85
2024/02/19 01:32:22;;;;;;;;;;;9.60;50.10;;;;;;5099195;28;20282;-85
2024/02/19 01:34:47;;;;;;;;;;;9.60;49.20;;;;;;5094588;28;19920;-83
2024/02/19 01:37:13;;;;;;;;;;;9.60;48.40;;;;;;5088742;28;19955;-84
2024/02/19 01:39:38;;;;;;;;;;;9.60;48.30;;;;;;5087080;28;19942;-84
2024/02/19 01:42:05;;;;;;;;;;;9.60;47.20;;;;;;5090065;28;20321;-84
2024/02/19 01:44:30;;;;;;;;;;;9.60;48.00;;;;;;5090058;28;19918;-85
2024/02/19 01:46:56;;;;;;;;;;;9.60;49.20;;;;;;5088518;28;19991;-84
2024/02/19 01:49:22;;;;;;;;;;;9.60;49.10;;;;;;5090536;28;19913;-85
2024/02/19 01:51:48;;;;;;;;;;;9.60;48.50;;;;;;5094238;28;19916;-85
2024/02/19 01:54:14;;;;;;;;;;;9.60;48.70;;;;;;5089260;28;19960;-83
2024/02/19 01:56:40;;;;;;;;;;;9.60;46.80;;;;;;5083427;28;19920;-83
2024/02/19 01:59:06;;;;;;;;;;;9.60;46.00;;;;;;5087638;28;19916;-82
2024/02/19 02:01:37;;;;;;;;;;;9.50;44.90;;;;;;5087615;28;19912;-82
2024/02/19 02:04:04;;;;;;;;;;;9.50;42.80;;;;;;5081197;28;19928;-83
2024/02/19 02:06:30;;;;;;;;;;;9.50;42.90;;;;;;5081224;28;20399;-83
2024/02/19 02:08:56;;;;;;;;;;;9.50;42.10;;;;;;5088178;28;20003;-82
2024/02/19 02:11:21;;;;;;;;;;;9.50;40.40;;;;;;5082872;28;19912;-83
2024/02/19 02:13:47;;;;;;;;;;;9.50;41.80;;;;;;5074386;28;19912;-82
2024/02/19 02:16:22;;;;;;;;;;;9.50;40.80;;;;;;5084444;28;19955;-82
2024/02/19 02:18:48;;;;;;;;;;;9.50;34.80;;;;;;5081693;28;20365;-83
2024/02/19 02:21:16;;;;;;;;;;;9.50;35.80;;;;;;5083363;28;19916;-82
2024/02/19 02:23:41;;;;;;;;;;;9.50;37.20;;;;;;5082432;28;19912;-83
2024/02/19 02:26:07;;;;;;;;;;;9.50;36.30;;;;;;5080209;28;19966;-82
2024/02/19 02:28:32;;;;;;;;;;;9.50;35.40;;;;;;5076132;28;19912;-82
2024/02/19 02:30:58;;;;;;;;;;;9.50;34.20;;;;;;5073598;28;19913;-83
2024/02/19 02:33:23;;;;;;;;;;;9.50;28.80;;;;;;5078664;28;20293;-83
2024/02/19 02:35:49;;;;;;;;;;;9.50;27.00;;;;;;5073140;28;19912;-83
2024/02/19 02:38:14;;;;;;;;;;;9.50;24.40;;;;;;5072613;28;19943;-83
2024/02/19 02:40:40;;;;;;;;;;;9.50;23.90;;;;;;5072890;28;19924;-83
2024/02/19 02:43:05;;;;;;;;;;;9.50;19.50;;;;;;5079280;28;19966;-83
2024/02/19 02:45:31;;;;;;;;;;;9.50;17.30;;;;;;5084492;28;19959;-82
2024/02/19 02:47:56;;;;;;;;;;;9.40;9.30;;;;;;5083780;28;19912;-83
2024/02/19 02:50:22;;;;;;;;;;;9.50;10.10;;;;;;5079300;28;19947;-83
2024/02/19 02:52:47;;;;;;;;;;;9.50;9.80;;;;;;5084182;28;19919;-82
2024/02/19 02:55:13;;;;;;;;;;;9.50;5.20;;;;;;5075212;28;19919;-82
2024/02/19 02:57:38;;;;;;;;;;;9.50;3.60;;;;;;5094101;28;19912;-83
2024/02/19 03:00:04;;;;;;;;;;;9.50;3.30;;;;;;5100557;28;19920;-84
2024/02/19 03:02:32;;;;;;;;;;;9.60;1.00;;;;;;5093919;28;19946;-84
2024/02/19 03:04:58;;;;;;;;;;;9.60;1.00;;;;;;5100470;28;19976;-84
2024/02/19 03:07:23;;;;;;;;;;;9.60;1.00;;;;;;5086732;28;19947;-83
2024/02/19 03:09:49;;;;;;;;;;;9.60;1.00;;;;;;5089284;28;19943;-84
2024/02/19 03:12:14;;;;;;;;;;;9.60;1.00;;;;;;5097279;28;19921;-84
2024/02/19 03:14:40;;;;;;;;;;;9.60;1.00;;;;;;5104720;28;19916;-83
2024/02/19 03:17:07;;;;;;;;;;;9.60;1.00;;;;;;5095486;28;19955;-84
2024/02/19 03:19:32;;;;;;;;;;;9.60;1.00;;;;;;5086710;28;19917;-84
2024/02/19 03:21:58;;;;;;;;;;;9.60;1.00;;;;;;5089349;28;19919;-84
2024/02/19 03:24:23;;;;;;;;;;;9.60;1.00;;;;;;5090878;28;19916;-84
2024/02/19 03:26:49;;;;;;;;;;;9.60;1.00;;;;;;5089330;28;19923;-81
2024/02/19 03:29:14;;;;;;;;;;;9.60;1.00;;;;;;5088463;28;19913;-83
2024/02/19 03:31:40;;;;;;;;;;;9.60;1.00;;;;;;5093179;28;19916;-84
2024/02/19 03:34:06;;;;;;;;;;;9.60;1.00;;;;;;5090393;28;20377;-83
2024/02/19 03:36:31;;;;;;;;;;;9.60;1.00;;;;;;5095758;28;20516;-84
2024/02/19 03:38:57;;;;;;;;;;;9.60;1.00;;;;;;5082634;28;19969;-84
2024/02/19 03:41:22;;;;;;;;;;;9.60;1.00;;;;;;5085590;28;20000;-81
2024/02/19 03:43:48;;;;;;;;;;;9.60;1.00;;;;;;5089540;28;20397;-83
2024/02/19 03:46:14;;;;;;;;;;;9.60;1.00;;;;;;5084870;28;19916;-82
2024/02/19 03:48:40;;;;;;;;;;;9.60;1.00;;;;;;5090374;28;19916;-83
2024/02/19 03:51:05;;;;;;;;;;;9.60;1.00;;;;;;5079496;28;19912;-83
2024/02/19 03:53:31;;;;;;;;;;;9.60;1.00;;;;;;5083831;28;19919;-83
2024/02/19 03:55:58;;;;;;;;;;;9.60;1.00;;;;;;5082731;28;19912;-82
2024/02/19 03:58:24;;;;;;;;;;;9.60;1.00;;;;;;5086495;28;19923;-83
2024/02/19 04:00:49;;;;;;;;;;;9.60;1.00;;;;;;5083396;28;19976;-82
2024/02/19 04:03:16;;;;;;;;;;;9.70;1.00;;;;;;5080761;28;20297;-83
2024/02/19 04:05:41;;;;;;;;;;;9.60;1.00;;;;;;5078632;28;19964;-84
2024/02/19 04:08:07;;;;;;;;;;;9.60;1.00;;;;;;5079270;28;20374;-83
2024/02/19 04:10:32;;;;;;;;;;;9.60;1.00;;;;;;5091786;28;19919;-83
2024/02/19 04:12:58;;;;;;;;;;;9.60;1.00;;;;;;5079528;28;19913;-82
2024/02/19 04:15:23;;;;;;;;;;;9.60;1.00;;;;;;5079860;28;19932;-82
2024/02/19 04:17:49;;;;;;;;;;;9.60;1.00;;;;;;5086880;28;19908;-82
2024/02/19 04:20:15;;;;;;;;;;;9.60;1.00;;;;;;5083349;28;19938;-83
2024/02/19 04:22:41;;;;;;;;;;;9.60;1.00;;;;;;5089095;28;19919;-82
2024/02/19 04:25:06;;;;;;;;;;;9.60;1.00;;;;;;5079479;28;19983;-83
2024/02/19 04:27:32;;;;;;;;;;;9.50;1.00;;;;;;5084372;28;19920;-84
2024/02/19 04:29:57;;;;;;;;;;;9.50;1.00;;;;;;5088608;28;19913;-84
2024/02/19 04:32:23;;;;;;;;;;;9.40;1.00;;;;;;5086862;28;20309;-84
2024/02/19 04:34:48;;;;;;;;;;;9.50;1.00;;;;;;5080933;28;19912;-83
2024/02/19 04:37:14;;;;;;;;;;;9.40;1.00;;;;;;5079567;28;20378;-84
2024/02/19 04:39:40;;;;;;;;;;;9.40;1.00;;;;;;5084758;28;19920;-84
2024/02/19 04:42:05;;;;;;;;;;;9.40;1.00;;;;;;5081112;28;19919;-84
2024/02/19 04:44:31;;;;;;;;;;;9.40;1.00;;;;;;5087180;28;19912;-84
2024/02/19 04:46:57;;;;;;;;;;;9.30;1.00;;;;;;5092096;28;19923;-84
2024/02/19 04:49:22;;;;;;;;;;;9.40;1.00;;;;;;5089450;28;19978;-83
2024/02/19 04:51:48;;;;;;;;;;;9.30;1.00;;;;;;5086115;28;19958;-82
2024/02/19 04:54:14;;;;;;;;;;;9.40;1.00;;;;;;5082797;28;19916;-84
2024/02/19 04:56:39;;;;;;;;;;;9.40;1.00;;;;;;5080792;28;19916;-83
2024/02/19 04:59:05;;;;;;;;;;;9.40;1.00;;;;;;5095308;28;20011;-83
2024/02/19 05:01:30;;;;;;;;;;;9.40;1.00;;;;;;5082184;28;19991;-83
2024/02/19 05:03:56;;;;;;;;;;;9.40;1.00;;;;;;5086913;28;19999;-84
2024/02/19 05:06:22;;;;;;;;;;;9.40;1.00;;;;;;5092005;28;19913;-83
2024/02/19 05:08:48;;;;;;;;;;;9.50;1.00;;;;;;5096098;28;20352;-83
2024/02/19 05:11:14;;;;;;;;;;;9.50;1.00;;;;;;5084962;28;19916;-83
2024/02/19 05:13:40;;;;;;;;;;;9.50;1.00;;;;;;5079124;28;19920;-83
2024/02/19 05:16:06;;;;;;;;;;;9.40;1.00;;;;;;5078772;28;19919;-84
2024/02/19 05:18:31;;;;;;;;;;;9.50;1.00;;;;;;5082754;28;19928;-84
2024/02/19 05:20:57;;;;;;;;;;;9.50;1.00;;;;;;5078860;28;20370;-83
2024/02/19 05:23:22;;;;;;;;;;;9.50;1.00;;;;;;5075643;28;19919;-83
2024/02/19 05:25:48;;;;;;;;;;;9.40;1.00;;;;;;5085801;28;19919;-81
2024/02/19 05:28:17;;;;;;;;;;;9.40;1.00;;;;;;5086331;28;19965;-83
2024/02/19 05:30:43;;;;;;;;;;;9.40;1.00;;;;;;5079485;28;19912;-83
2024/02/19 05:33:08;;;;;;;;;;;9.40;1.00;;;;;;5076346;28;20011;-84
2024/02/19 05:35:34;;;;;;;;;;;9.40;1.00;;;;;;5085345;28;19967;-85
2024/02/19 05:37:59;;;;;;;;;;;9.40;1.00;;;;;;5082764;28;19972;-84
2024/02/19 05:40:24;;;;;;;;;;;9.40;1.00;;;;;;5087337;28;20373;-82
2024/02/19 05:42:50;;;;;;;;;;;9.40;1.00;;;;;;5079261;28;19923;-83
2024/02/19 05:45:16;;;;;;;;;;;9.40;1.00;;;;;;5079644;28;19909;-85
2024/02/19 05:47:42;;;;;;;;;;;9.40;1.00;;;;;;5083340;28;19919;-83
2024/02/19 05:50:08;;;;;;;;;;;9.40;1.00;;;;;;5089664;28;19961;-83
2024/02/19 05:52:33;;;;;;;;;;;9.40;1.00;;;;;;5088519;28;19916;-84
2024/02/19 05:54:59;;;;;;;;;;;9.40;1.00;;;;;;5078825;28;20003;-83
2024/02/19 05:57:25;;;;;;;;;;;9.40;1.00;;;;;;5084163;28;19912;-82
2024/02/19 05:59:51;;;;;;;;;;;9.40;1.00;;;;;;5089793;28;20460;-84
2024/02/19 06:02:16;;;;;;;;;;;9.30;1.00;;;;;;5094175;28;19995;-84
2024/02/19 06:04:41;;;;;;;;;;;9.50;1.00;;;;;;5096123;28;19944;-84
2024/02/19 06:07:07;;;;;;;;;;;9.40;1.00;;;;;;5082119;28;19915;-85
2024/02/19 06:09:32;;;;;;;;;;;9.40;1.00;;;;;;5083615;28;20400;-83
2024/02/19 06:11:58;;;;;;;;;;;9.40;1.00;;;;;;5088292;28;19909;-85
2024/02/19 06:14:25;;;;;;;;;;;9.40;1.00;;;;;;5089322;28;19923;-84
2024/02/19 06:16:51;;;;;;;;;;;9.50;1.00;;;;;;5086530;28;20006;-84
2024/02/19 06:19:16;;;;;;;;;;;9.50;1.00;;;;;;5086279;28;19916;-82
2024/02/19 06:21:42;;;;;;;;;;;9.40;1.00;;;;;;5092174;28;19916;-85
2024/02/19 06:24:08;;;;;;;;;;;9.50;1.00;;;;;;5094453;28;19965;-84
2024/02/19 06:26:33;;;;;;;;;;;9.60;1.00;;;;;;5093079;28;19916;-84
2024/02/19 06:28:59;;;;;;;;;;;9.60;1.00;;;;;;5089748;28;19912;-84
2024/02/19 06:31:27;;;;;;;;;;;9.50;1.00;;;;;;5083146;28;19908;-84
2024/02/19 06:33:53;;;;;;;;;;;9.50;1.00;;;;;;5083223;28;19912;-84
2024/02/19 06:36:19;;;;;;;;;;;9.50;1.00;;;;;;5085488;28;19909;-84
2024/02/19 06:38:44;;;;;;;;;;;9.50;1.00;;;;;;5088032;28;19920;-85
2024/02/19 06:41:10;;;;;;;;;;;9.50;1.00;;;;;;5080786;28;19976;-84
2024/02/19 06:43:35;;;;;;;;;;;9.60;1.00;;;;;;5079133;28;19912;-85
2024/02/19 06:46:01;;;;;;;;;;;9.50;1.00;;;;;;5073584;28;19919;-84
2024/02/19 06:48:26;;;;;;;;;;;9.50;1.00;;;;;;5073143;28;20275;-84
2024/02/19 06:50:52;;;;;;;;;;;9.60;1.00;;;;;;5075365;28;20540;-83
2024/02/19 06:53:17;;;;;;;;;;;9.50;1.00;;;;;;5081560;28;19912;-85
2024/02/19 06:55:43;;;;;;;;;;;9.50;1.00;;;;;;5074615;28;19923;-85
2024/02/19 06:58:08;;;;;;;;;;;9.60;1.00;;;;;;5089491;28;19968;-85
2024/02/19 07:00:34;;;;;;;;;;;9.60;1.00;;;;;;5082433;28;20298;-83
2024/02/19 07:02:59;;;;;;;;;;;9.60;1.00;;;;;;5083824;28;19999;-84
2024/02/19 07:05:25;;;;;;;;;;;9.70;1.00;;;;;;5087219;28;19913;-84
2024/02/19 07:07:50;;;;;;;;;;;9.80;1.00;;;;;;5088764;28;19919;-83
2024/02/19 07:10:16;;;;;;;;;;;9.80;1.00;;;;;;5105685;28;19912;-82
2024/02/19 07:12:41;;;;;;;;;;;9.80;1.00;;;;;;5081091;28;19912;-85
2024/02/19 07:15:07;;;;;;;;;;;10.00;1.00;;;;;;5084659;28;19912;-83
2024/02/19 07:17:32;;;;;;;;;;;9.90;1.00;;;;;;5090316;28;20108;-84
2024/02/19 07:20:01;;;;;;;;;;;9.90;1.00;;;;;;5085091;28;19916;-84
2024/02/19 07:22:26;;;;;;;;;;;10.00;1.00;;;;;;5086432;28;19940;-84
2024/02/19 07:24:52;;;;;;;;;;;10.00;1.00;;;;;;5083756;28;19919;-84
2024/02/19 07:27:17;;;;;;;;;;;10.00;1.00;;;;;;5078812;28;19912;-83
2024/02/19 07:29:43;;;;;;;;;;;10.10;1.00;;;;;;5083652;28;19969;-84
2024/02/19 07:32:08;;;;;;;;;;;10.10;1.00;;;;;;5079278;28;19935;-84
2024/02/19 07:34:34;;;;;;;;;;;10.10;1.00;;;;;;5085616;28;19966;-85
2024/02/19 07:36:59;;;;;;;;;;;10.10;1.00;;;;;;5083086;28;19969;-84
2024/02/19 07:39:25;;;;;;;;;;;10.20;1.00;;;;;;5081082;28;20389;-87
2024/02/19 07:41:50;;;;;;;;;;;10.20;1.00;;;;;;5084976;28;19916;-85
2024/02/19 07:44:16;;;;;;;;;;;10.20;1.00;;;;;;5091448;28;19976;-83
2024/02/19 07:46:41;;;;;;;;;;;10.20;1.00;;;;;;5086573;28;19971;-84
2024/02/19 07:49:07;;;;;;;;;;;10.20;1.00;;;;;;5095388;28;19920;-84
2024/02/19 07:51:33;;;;;;;;;;;10.30;1.00;;;;;;5087566;28;19933;-86
2024/02/19 07:53:58;;;;;;;;;;;10.20;1.00;;;;;;5079895;28;19928;-84
2024/02/19 07:56:24;;;;;;;;;;;10.30;1.00;;;;;;5079015;28;19912;-84
2024/02/19 07:58:49;;;;;;;;;;;10.40;1.00;;;;;;5078280;28;19923;-84
2024/02/19 08:01:15;;;;;;;;;;;10.40;1.00;;;;;;5083400;28;19913;-83
2024/02/19 08:03:41;;;;;;;;;;;10.30;1.00;;;;;;5089421;28;19947;-84
2024/02/19 08:06:07;;;;;;;;;;;10.40;1.00;;;;;;5086061;28;19918;-84
2024/02/19 08:08:35;;;;;;;;;;;10.60;1.00;;;;;;5092007;28;19912;-84
2024/02/19 08:11:02;;;;;;;;;;;10.50;1.00;;;;;;5090564;28;19913;-84
2024/02/19 08:13:27;;;;;;;;;;;10.60;1.00;;;;;;5084639;28;19995;-84
2024/02/19 08:15:53;;;;;;;;;;;10.60;1.00;;;;;;5085585;28;20369;-83
2024/02/19 08:18:19;;;;;;;;;;;10.70;1.00;;;;;;5085934;28;19943;-84
2024/02/19 08:20:45;;;;;;;;;;;10.80;1.00;;;;;;5084939;28;19912;-83
2024/02/19 08:23:10;;;;;;;;;;;11.00;1.00;;;;;;5081339;28;20442;-85
2024/02/19 08:25:36;;;;;;;;;;;11.10;1.00;;;;;;5081889;28;19919;-85
2024/02/19 08:28:01;;;;;;;;;;;11.20;1.00;;;;;;5085888;28;19912;-85
2024/02/19 08:30:27;;;;;;;;;;;11.30;1.00;;;;;;5077984;28;20409;-84
2024/02/19 08:32:52;;;;;;;;;;;11.20;1.00;;;;;;5076017;28;20019;-83
2024/02/19 08:35:18;;;;;;;;;;;11.30;1.00;;;;;;5082779;28;19912;-83
2024/02/19 08:37:43;;;;;;;;;;;11.30;1.00;;;;;;5079922;28;19917;-83
2024/02/19 08:40:09;;;;;;;;;;;11.40;1.00;;;;;;5075818;28;20294;-84
2024/02/19 08:42:35;;;;;;;;;;;11.50;1.00;;;;;;5080359;28;19912;-84
2024/02/19 08:45:03;;;;;;;;;;;11.50;1.00;;;;;;5080209;28;19994;-80
2024/02/19 08:47:28;;;;;;;;;;;11.50;1.00;;;;;;5081913;28;19981;-84
2024/02/19 08:49:54;;;;;;;;;;;11.50;1.00;;;;;;5080060;28;19908;-84
2024/02/19 08:52:19;;;;;;;;;;;11.50;1.00;;;;;;5078694;28;19909;-84
2024/02/19 08:54:45;;;;;;;;;;;11.50;1.00;;;;;;5086082;28;20015;-83
2024/02/19 08:57:10;;;;;;;;;;;11.60;1.00;;;;;;5089859;28;19916;-84
2024/02/19 08:59:37;;;;;;;;;;;11.70;1.00;;;;;;5094609;28;19995;-84
2024/02/19 09:02:03;;;;;;;;;;;11.80;1.00;;;;;;5092062;28;20416;-84
2024/02/19 09:04:29;;;;;;;;;;;11.90;1.00;;;;;;5090114;28;19913;-86
2024/02/19 09:06:55;;;;;;;;;;;11.90;1.00;;;;;;5085886;28;19927;-85
2024/02/19 09:09:20;;;;;;;;;;;12.00;1.00;;;;;;5097938;28;20011;-84
2024/02/19 09:11:45;;;;;;;;;;;12.10;1.00;;;;;;5075225;28;19912;-84
2024/02/19 09:14:11;;;;;;;;;;;12.20;99.90;;;;;;5078531;28;19912;-84
2024/02/19 09:16:37;;;;;;;;;;;12.60;99.90;;;;;;5078603;28;19924;-83
2024/02/19 09:19:06;;;;;;;;;;;13.10;99.90;;;;;;5090364;28;20009;-83
2024/02/19 09:21:31;;;;;;;;;;;13.60;1.00;;;;;;5088539;28;19971;-84
2024/02/19 09:23:57;;;;;;;;;;;14.10;99.90;;;;;;5084775;28;19947;-86
2024/02/19 09:26:22;;;;;;;;;;;14.50;99.90;;;;;;5086278;28;19916;-81
2024/02/19 09:28:48;;;;;;;;;;;14.70;99.90;;;;;;5090260;28;19912;-84
2024/02/19 09:31:14;;;;;;;;;;;15.00;1.00;;;;;;5092810;28;19923;-84
2024/02/19 09:33:40;;;;;;;;;;;15.20;99.90;;;;;;5084609;28;19991;-83
2024/02/19 09:36:07;;;;;;;;;;;15.30;24.50;;;;;;5078821;28;19947;-82
2024/02/19 09:38:32;;;;;;;;;;;15.30;1.00;;;;;;5076970;28;19935;-83
2024/02/19 09:40:58;;;;;;;;;;;15.40;1.00;;;;;;5079230;28;19917;-82
2024/02/19 09:43:24;;;;;;;;;;;15.50;1.00;;;;;;5080547;28;20018;-82
2024/02/19 09:45:50;;;;;;;;;;;15.60;1.00;;;;;;5078198;28;19958;-82
2024/02/19 09:48:19;;;;;;;;;;;15.50;1.00;;;;;;5080735;28;19959;-82
2024/02/19 09:50:47;;;;;;;;;;;15.30;1.00;;;;;;5087480;28;19919;-82
2024/02/19 09:53:18;;;;;;;;;;;15.20;1.00;;;;;;5083200;28;20054;-82
2024/02/19 09:55:44;;;;;;;;;;;15.40;1.00;;;;;;5082585;28;19921;-82
2024/02/19 09:58:10;;;;;;;;;;;15.40;1.00;;;;;;5088163;28;20405;-83
2024/02/19 10:00:35;;;;;;;;;;;15.30;1.00;;;;;;5082725;28;20382;-83
2024/02/19 10:03:01;;;;;;;;;;;15.10;1.00;;;;;;5079401;28;20298;-84
2024/02/19 10:05:27;;;;;;;;;;;14.90;1.00;;;;;;5078771;28;19918;-83
2024/02/19 10:07:57;;;;;;;;;;;14.70;99.90;;;;;;5076915;28;19995;-82
2024/02/19 10:10:23;;;;;;;;;;;14.50;1.00;;;;;;5088507;28;20019;-82
2024/02/19 10:12:48;;;;;;;;;;;14.30;56.10;;;;;;5088387;28;19963;-82
2024/02/19 10:15:14;;;;;;;;;;;14.00;1.00;;;;;;5092956;28;20297;-81
2024/02/19 10:17:40;;;;;;;;;;;13.90;99.90;;;;;;5084121;28;19909;-83
2024/02/19 10:20:05;;;;;;;;;;;13.70;99.90;;;;;;5085878;28;19912;-81
2024/02/19 10:22:32;;;;;;;;;;;13.60;1.00;;;;;;5093132;28;19912;-82
2024/02/19 10:24:58;;;;;;;;;;;13.50;1.00;;;;;;5084830;28;19913;-83
2024/02/19 10:27:23;;;;;;;;;;;13.40;1.00;;;;;;5097135;28;19959;-83
2024/02/19 10:29:49;;;;;;;;;;;13.30;99.90;;;;;;5094257;28;19939;-84
2024/02/19 10:32:14;;;;;;;;;;;13.10;1.00;;;;;;5085899;28;19908;-82
2024/02/19 10:34:40;;;;;;;;;;;13.10;99.90;;;;;;5087170;28;19908;-82
2024/02/19 10:37:05;;;;;;;;;;;13.10;99.90;;;;;;5089193;28;19912;-82
2024/02/19 10:39:31;;;;;;;;;;;13.10;99.90;;;;;;5095223;28;19954;-84
2024/02/19 10:42:00;;;;;;;;;;;13.10;1.00;;;;;;5084484;28;19922;-83
2024/02/19 10:44:26;;;;;;;;;;;13.20;99.90;;;;;;5087936;28;19955;-82
2024/02/19 10:46:52;;;;;;;;;;;13.50;99.90;;;;;;5090631;28;19908;-83
2024/02/19 10:49:19;;;;;;;;;;;13.70;1.00;;;;;;5093997;28;20398;-82
2024/02/19 10:51:47;;;;;;;;;;;13.80;99.90;;;;;;5095216;28;19916;-82
2024/02/19 10:54:15;;;;;;;;;;;14.00;1.00;;;;;;5093763;28;20379;-83
2024/02/19 10:56:44;;;;;;;;;;;14.10;1.00;;;;;;5095290;28;19908;-83
2024/02/19 10:59:13;;;;;;;;;;;14.20;1.00;;;;;;5083528;28;19955;-84
2024/02/19 11:01:46;;;;;;;;;;;14.10;1.00;;;;;;5092162;28;20374;-83
2024/02/19 11:04:15;;;;;;;;;;;14.00;99.90;;;;;;5088100;28;19912;-84
2024/02/19 11:06:46;;;;;;;;;;;14.00;99.90;;;;;;5091158;28;19912;-83
2024/02/19 11:09:12;;;;;;;;;;;13.90;1.00;;;;;;5081102;28;19913;-83
2024/02/19 11:11:55;;;;;;;;;;;14.00;1.00;;;;;;5091577;28;19908;-81
2024/02/19 11:14:21;;;;;;;;;;;13.80;1.00;;;;;;5084395;28;19940;-83
2024/02/19 11:16:48;;;;;;;;;;;13.80;1.00;;;;;;5097869;28;19912;-83
2024/02/19 11:19:13;;;;;;;;;;;13.70;1.00;;;;;;5079629;28;19920;-83
2024/02/19 11:21:39;;;;;;;;;;;13.60;1.00;;;;;;5092941;28;19916;-84
2024/02/19 11:24:07;;;;;;;;;;;13.40;1.00;;;;;;5076647;28;19954;-82
2024/02/19 11:26:32;;;;;;;;;;;13.30;1.00;;;;;;5085864;28;20297;-83
2024/02/19 11:28:58;;;;;;;;;;;13.20;1.00;;;;;;5081581;28;19966;-81
2024/02/19 11:31:24;;;;;;;;;;;13.10;1.00;;;;;;5087959;28;19962;-83
2024/02/19 11:33:50;;;;;;;;;;;13.00;1.00;;;;;;5087892;28;19912;-83
2024/02/19 11:36:16;;;;;;;;;;;12.90;27.20;;;;;;5080207;28;19932;-83
2024/02/19 11:38:41;;;;;;;;;;;12.80;99.90;;;;;;5089532;28;19923;-83
2024/02/19 11:41:10;;;;;;;;;;;12.60;99.90;;;;;;5085008;28;19912;-81
2024/02/19 11:43:36;;;;;;;;;;;12.50;99.90;;;;;;5091008;28;19919;-81
2024/02/19 11:46:02;;;;;;;;;;;12.50;99.90;;;;;;5087712;28;20007;-82
2024/02/19 11:48:27;;;;;;;;;;;12.60;99.90;;;;;;5083892;28;19909;-82
2024/02/19 11:50:53;;;;;;;;;;;12.80;99.90;;;;;;5082855;28;19958;-82
2024/02/19 11:53:20;;;;;;;;;;;13.10;24.50;;;;;;5076498;28;20266;-83
2024/02/19 11:55:45;;;;;;;;;;;13.30;1.00;;;;;;5083000;28;19917;-82
2024/02/19 11:58:12;;;;;;;;;;;13.50;1.00;;;;;;5083162;28;19931;-83
2024/02/19 12:00:37;;;;;;;;;;;13.60;89.30;;;;;;5090202;28;19908;-82
2024/02/19 12:03:03;;;;;;;;;;;13.70;99.90;;;;;;5081509;28;19962;-82
2024/02/19 12:05:29;;;;;;;;;;;13.80;1.00;;;;;;5088024;28;19908;-83
2024/02/19 12:07:55;;;;;;;;;;;13.80;99.90;;;;;;5089829;28;20263;-82
2024/02/19 12:10:20;;;;;;;;;;;13.80;99.90;;;;;;5090058;28;19916;-81
2024/02/19 12:12:46;;;;;;;;;;;13.80;99.90;;;;;;5081953;28;19908;-82
2024/02/19 12:15:13;;;;;;;;;;;13.80;1.00;;;;;;5088209;28;19926;-81
2024/02/19 12:17:41;;;;;;;;;;;13.70;1.00;;;;;;5086270;28;19975;-82
2024/02/19 12:20:10;;;;;;;;;;;13.70;79.20;;;;;;5090463;28;19975;-82
2024/02/19 12:22:36;;;;;;;;;;;13.60;1.00;;;;;;5083328;28;19934;-82
2024/02/19 12:25:02;;;;;;;;;;;13.50;52.20;;;;;;5080848;28;19920;-81
2024/02/19 12:27:27;;;;;;;;;;;13.40;99.90;;;;;;5089072;28;19912;-82
2024/02/19 12:29:53;;;;;;;;;;;13.40;2.90;;;;;;5092529;28;19978;-81
2024/02/19 12:32:21;;;;;;;;;;;13.40;99.90;;;;;;5079906;28;19912;-82
2024/02/19 12:34:47;;;;;;;;;;;13.30;2.80;;;;;;5093993;28;19915;-82
2024/02/19 12:37:14;;;;;;;;;;;13.10;1.00;;;;;;5087015;28;20358;-81
2024/02/19 12:39:39;;;;;;;;;;;13.00;1.00;;;;;;5087394;28;19920;-82
2024/02/19 12:42:07;;;;;;;;;;;13.00;12.70;;;;;;5094445;28;19908;-82
2024/02/19 12:44:33;;;;;;;;;;;12.90;1.00;;;;;;5090391;28;20380;-82
2024/02/19 12:46:58;;;;;;;;;;;12.90;3.60;;;;;;5093376;28;19919;-82
2024/02/19 12:49:27;;;;;;;;;;;12.90;99.90;;;;;;5088175;28;19919;-82
2024/02/19 12:51:53;;;;;;;;;;;12.90;99.90;;;;;;5098949;28;20347;-82
2024/02/19 12:54:20;;;;;;;;;;;12.90;99.90;;;;;;5077644;28;19997;-82
2024/02/19 12:56:46;;;;;;;;;;;12.80;99.90;;;;;;5082580;28;19919;-82
2024/02/19 12:59:11;;;;;;;;;;;12.70;99.90;;;;;;5078550;28;19917;-82
2024/02/19 13:01:37;;;;;;;;;;;12.60;1.00;;;;;;5093446;28;19911;-82
2024/02/19 13:04:03;;;;;;;;;;;12.60;1.00;;;;;;5084297;28;19917;-80
2024/02/19 13:06:28;;;;;;;;;;;12.70;1.00;;;;;;5088320;28;20290;-82
2024/02/19 13:08:54;;;;;;;;;;;12.70;1.00;;;;;;5078628;28;19959;-81
2024/02/19 13:11:19;;;;;;;;;;;12.70;1.00;;;;;;5080546;28;19912;-82
2024/02/19 13:13:45;;;;;;;;;;;12.70;99.90;;;;;;5082837;28;19920;-82
2024/02/19 13:16:14;;;;;;;;;;;12.60;99.90;;;;;;5074630;28;20393;-81
2024/02/19 13:18:39;;;;;;;;;;;12.60;1.00;;;;;;5081632;28;20011;-81
2024/02/19 13:21:05;;;;;;;;;;;12.70;1.00;;;;;;5081043;28;19947;-81
2024/02/19 13:23:30;;;;;;;;;;;12.60;1.00;;;;;;5082743;28;19966;-81
2024/02/19 13:25:56;;;;;;;;;;;12.50;4.40;;;;;;5080073;28;19919;-81
2024/02/19 13:28:21;;;;;;;;;;;12.50;70.00;;;;;;5073187;28;19948;-82
2024/02/19 13:30:47;;;;;;;;;;;12.40;99.90;;;;;;5078878;28;19966;-81
2024/02/19 13:33:13;;;;;;;;;;;12.30;99.90;;;;;;5085380;28;20373;-80
2024/02/19 13:35:39;;;;;;;;;;;12.20;99.90;;;;;;5073149;28;20389;-81
2024/02/19 13:38:05;;;;;;;;;;;12.10;99.90;;;;;;5080785;28;19912;-81
2024/02/19 13:40:33;;;;;;;;;;;12.10;99.90;;;;;;5084492;28;22022;-81
2024/02/19 13:42:58;;;;;;;;;;;12.00;99.90;;;;;;5083322;28;19921;-81
2024/02/19 13:45:25;;;;;;;;;;;12.20;99.90;;;;;;5080653;28;19919;-81
2024/02/19 13:47:58;;;;;;;;;;;12.50;99.90;;;;;;5080056;28;19930;-81
2024/02/19 13:50:24;;;;;;;;;;;12.80;1.00;;;;;;5079243;28;20712;-80
2024/02/19 13:52:50;;;;;;;;;;;12.80;99.90;;;;;;5094479;28;19912;-81
2024/02/19 13:55:15;;;;;;;;;;;12.80;1.00;;;;;;5079279;28;20393;-82
2024/02/19 13:57:41;;;;;;;;;;;12.60;1.00;;;;;;5085454;28;19952;-81
2024/02/19 14:00:07;;;;;;;;;;;12.50;99.90;;;;;;5076861;28;19924;-81
2024/02/19 14:02:33;;;;;;;;;;;12.40;1.00;;;;;;5073732;28;19924;-81
2024/02/19 14:04:59;;;;;;;;;;;12.40;99.90;;;;;;5076558;28;19912;-81
2024/02/19 14:07:24;;;;;;;;;;;12.30;1.00;;;;;;5076561;28;19919;-81
2024/02/19 14:09:50;;;;;;;;;;;12.30;1.00;;;;;;5079794;28;19951;-80
2024/02/19 14:12:15;;;;;;;;;;;12.20;1.00;;;;;;5075203;28;19913;-81
2024/02/19 14:14:41;;;;;;;;;;;12.20;1.00;;;;;;5081166;28;19912;-82
2024/02/19 14:17:06;;;;;;;;;;;12.20;1.00;;;;;;5081338;28;19917;-81
2024/02/19 14:19:33;;;;;;;;;;;12.20;1.00;;;;;;5086258;28;19939;-81
2024/02/19 14:21:59;;;;;;;;;;;12.10;40.30;;;;;;5077816;28;20374;-82